createdAt,value
2018-06-07T00:00:35.932Z,1007.80
2018-06-07T00:01:35.493Z,1007.79
2018-06-07T00:03:35.912Z,1007.79
2018-06-07T00:04:42.438Z,1007.83
2018-06-07T00:06:34.894Z,1007.81
2018-06-07T00:07:33.887Z,1007.81
2018-06-07T00:09:34.340Z,1007.78
2018-06-07T00:10:35.301Z,1007.75
2018-06-07T00:12:35.282Z,1007.75
2018-06-07T00:13:34.792Z,1007.76
2018-06-07T00:15:36.728Z,1007.73
2018-06-07T00:16:35.230Z,1007.76
2018-06-07T00:18:35.696Z,1007.83
2018-06-07T00:19:36.207Z,1007.86
2018-06-07T00:21:37.204Z,1007.90
2018-06-07T00:22:36.149Z,1007.85
2018-06-07T00:24:37.145Z,1007.85
2018-06-07T00:25:36.670Z,1007.83
2018-06-07T00:27:38.078Z,1007.85
2018-06-07T00:28:37.578Z,1007.85
2018-06-07T00:30:38.064Z,1007.85
2018-06-07T00:31:38.060Z,1007.85
2018-06-07T00:33:38.047Z,1007.89
2018-06-07T00:34:38.070Z,1007.87
2018-06-07T00:36:39.100Z,1007.93
2018-06-07T00:37:38.593Z,1007.93
2018-06-07T00:39:39.554Z,1007.94
2018-06-07T00:40:39.965Z,1007.94
2018-06-07T00:42:39.476Z,1007.91
2018-06-07T00:43:39.438Z,1007.90
2018-06-07T00:45:39.888Z,1007.90
2018-06-07T00:46:39.889Z,1007.90
2018-06-07T00:48:40.336Z,1007.90
2018-06-07T00:49:40.486Z,1007.93
2018-06-07T00:51:42.825Z,1007.94
2018-06-07T00:52:40.794Z,1007.92
2018-06-07T00:54:41.258Z,1007.99
2018-06-07T00:55:41.258Z,1007.98
2018-06-07T00:57:43.235Z,1007.97
2018-06-07T00:58:42.799Z,1007.99
2018-06-07T01:00:42.285Z,1008.01
2018-06-07T01:01:42.739Z,1008.02
2018-06-07T01:03:42.653Z,1008.00
2018-06-07T01:04:42.643Z,1008.00
2018-06-07T01:06:43.207Z,1008.01
2018-06-07T01:07:43.151Z,1008.02
2018-06-07T01:09:43.615Z,1008.02
2018-06-07T01:10:43.556Z,1008.05
2018-06-07T01:12:44.034Z,1008.04
2018-06-07T01:13:44.144Z,1008.05
2018-06-07T01:15:44.459Z,1008.12
2018-06-07T01:16:45.440Z,1008.14
2018-06-07T01:18:45.958Z,1008.16
2018-06-07T01:19:44.983Z,1008.14
2018-06-07T01:21:45.401Z,1008.14
2018-06-07T01:22:46.440Z,1008.12
2018-06-07T01:24:47.376Z,1008.10
2018-06-07T01:25:46.387Z,1008.11
2018-06-07T01:27:46.355Z,1008.10
2018-06-07T01:28:46.819Z,1008.11
2018-06-07T01:30:47.414Z,1008.14
2018-06-07T01:31:46.856Z,1008.13
2018-06-07T01:33:47.284Z,1008.19
2018-06-07T01:34:47.281Z,1008.25
2018-06-07T01:36:48.273Z,1008.22
2018-06-07T01:37:47.716Z,1008.25
2018-06-07T01:39:48.219Z,1008.25
2018-06-07T01:40:48.174Z,1008.23
2018-06-07T01:42:48.680Z,1008.26
2018-06-07T01:43:50.136Z,1008.25
2018-06-07T01:45:49.200Z,1008.24
2018-06-07T01:46:49.101Z,1008.24
2018-06-07T01:48:49.640Z,1008.23
2018-06-07T01:49:49.607Z,1008.20
2018-06-07T01:51:51.085Z,1008.19
2018-06-07T01:52:50.803Z,1008.22
2018-06-07T01:54:53.767Z,1008.17
2018-06-07T01:55:51.708Z,1008.18
2018-06-07T01:57:51.786Z,1008.17
2018-06-07T01:58:51.726Z,1008.21
2018-06-07T02:00:54.145Z,1008.23
2018-06-07T02:01:52.269Z,1008.22
2018-06-07T02:03:53.675Z,1008.21
2018-06-07T02:04:52.674Z,1008.19
2018-06-07T02:06:53.634Z,1008.21
2018-06-07T02:07:54.124Z,1008.23
2018-06-07T02:09:53.711Z,1008.26
2018-06-07T02:10:54.595Z,1008.28
2018-06-07T02:12:54.079Z,1008.36
2018-06-07T02:13:55.143Z,1008.52
2018-06-07T02:15:54.612Z,1008.67
2018-06-07T02:16:55.567Z,1008.63
2018-06-07T02:18:55.079Z,1008.61
2018-06-07T02:19:55.051Z,1008.64
2018-06-07T02:21:53.555Z,1008.60
2018-06-07T02:22:53.987Z,1008.61
2018-06-07T02:24:53.637Z,1008.68
2018-06-07T02:25:53.564Z,1008.77
2018-06-07T02:27:54.111Z,1008.75
2018-06-07T02:28:54.042Z,1008.69
2018-06-07T02:30:56.537Z,1008.72
2018-06-07T02:31:54.631Z,1008.74
2018-06-07T02:33:55.138Z,1008.89
2018-06-07T02:34:56.033Z,1008.94
2018-06-07T02:36:59.990Z,1008.88
2018-06-07T02:38:00.006Z,1008.92
2018-06-07T02:39:59.925Z,1008.89
2018-06-07T02:40:59.441Z,1008.91
2018-06-07T02:43:01.409Z,1008.99
2018-06-07T02:44:00.877Z,1008.98
2018-06-07T02:46:02.874Z,1009.01
2018-06-07T02:47:01.396Z,1008.94
2018-06-07T02:49:02.350Z,1008.85
2018-06-07T02:50:01.813Z,1008.87
2018-06-07T02:52:02.317Z,1008.83
2018-06-07T02:53:02.258Z,1008.85
2018-06-07T02:55:02.782Z,1008.91
2018-06-07T02:56:02.751Z,1008.92
2018-06-07T02:58:03.701Z,1008.93
2018-06-07T02:59:04.679Z,1008.95
2018-06-07T03:01:03.765Z,1008.99
2018-06-07T03:02:04.177Z,1009.02
2018-06-07T03:04:04.145Z,1009.03
2018-06-07T03:05:05.139Z,1009.00
2018-06-07T03:07:04.609Z,1009.00
2018-06-07T03:08:05.588Z,1008.99
2018-06-07T03:10:05.667Z,1009.02
2018-06-07T03:11:05.117Z,1009.03
2018-06-07T03:13:06.603Z,1009.00
2018-06-07T03:14:05.642Z,1009.00
2018-06-07T03:16:06.507Z,1009.00
2018-06-07T03:17:07.556Z,1009.00
2018-06-07T03:19:07.494Z,1009.03
2018-06-07T03:20:06.578Z,1009.01
2018-06-07T03:22:07.499Z,1009.00
2018-06-07T03:23:07.527Z,1009.03
2018-06-07T03:25:07.449Z,1009.06
2018-06-07T03:26:07.530Z,1009.08
2018-06-07T03:28:07.930Z,1009.09
2018-06-07T03:29:07.955Z,1009.09
2018-06-07T03:31:08.440Z,1009.11
2018-06-07T03:32:09.363Z,1009.08
2018-06-07T03:34:08.848Z,1009.10
2018-06-07T03:35:09.334Z,1009.08
2018-06-07T03:37:09.303Z,1009.12
2018-06-07T03:38:09.342Z,1009.08
2018-06-07T03:40:09.864Z,1009.13
2018-06-07T03:41:09.765Z,1009.15
2018-06-07T03:43:10.252Z,1009.17
2018-06-07T03:44:11.730Z,1009.19
2018-06-07T03:46:13.706Z,1009.20
2018-06-07T03:47:11.194Z,1009.18
2018-06-07T03:49:11.192Z,1009.17
2018-06-07T03:50:11.195Z,1009.19
2018-06-07T03:52:11.763Z,1009.20
2018-06-07T03:53:12.102Z,1009.21
2018-06-07T03:55:12.039Z,1009.23
2018-06-07T03:56:12.566Z,1009.24
2018-06-07T03:58:13.025Z,1009.24
2018-06-07T03:59:12.496Z,1009.23
2018-06-07T04:01:13.609Z,1009.27
2018-06-07T04:02:12.990Z,1009.28
2018-06-07T04:04:13.464Z,1009.26
2018-06-07T04:05:13.494Z,1009.31
2018-06-07T04:07:18.992Z,1009.34
2018-06-07T04:08:14.040Z,1009.36
2018-06-07T04:10:14.441Z,1009.38
2018-06-07T04:11:14.370Z,1009.40
2018-06-07T04:13:14.888Z,1009.43
2018-06-07T04:14:14.900Z,1009.40
2018-06-07T04:16:16.426Z,1009.42
2018-06-07T04:17:17.270Z,1009.39
2018-06-07T04:19:15.768Z,1009.37
2018-06-07T04:20:15.787Z,1009.40
2018-06-07T04:22:16.763Z,1009.44
2018-06-07T04:23:16.245Z,1009.41
2018-06-07T04:25:17.247Z,1009.48
2018-06-07T04:26:16.708Z,1009.50
2018-06-07T04:28:17.267Z,1009.48
2018-06-07T04:29:18.138Z,1009.52
2018-06-07T04:31:17.665Z,1009.52
2018-06-07T04:32:17.633Z,1009.56
2018-06-07T04:34:18.634Z,1009.57
2018-06-07T04:35:18.629Z,1009.59
2018-06-07T04:37:19.046Z,1009.62
2018-06-07T04:38:18.575Z,1009.65
2018-06-07T04:40:19.071Z,1009.70
2018-06-07T04:41:20.086Z,1009.67
2018-06-07T04:43:20.454Z,1009.70
2018-06-07T04:44:20.053Z,1009.71
2018-06-07T04:46:21.480Z,1009.72
2018-06-07T04:47:20.963Z,1009.77
2018-06-07T04:49:21.468Z,1009.77
2018-06-07T04:50:21.454Z,1009.76
2018-06-07T04:52:21.978Z,1009.75
2018-06-07T04:53:21.997Z,1009.81
2018-06-07T04:55:23.355Z,1009.82
2018-06-07T04:56:24.319Z,1009.82
2018-06-07T04:58:23.384Z,1009.86
2018-06-07T04:59:23.829Z,1009.89
2018-06-07T05:01:24.348Z,1009.87
2018-06-07T05:02:23.327Z,1009.86
2018-06-07T05:04:24.255Z,1009.86
2018-06-07T05:05:25.319Z,1009.89
2018-06-07T05:07:24.992Z,1009.91
2018-06-07T05:08:25.788Z,1009.93
2018-06-07T05:10:25.609Z,1009.93
2018-06-07T05:11:25.528Z,1009.88
2018-06-07T05:13:25.961Z,1009.94
2018-06-07T05:14:25.977Z,1009.95
2018-06-07T05:16:24.962Z,1009.91
2018-06-07T05:17:23.941Z,1009.93
2018-06-07T05:19:22.443Z,1009.98
2018-06-07T05:20:21.920Z,1009.97
2018-06-07T05:22:20.420Z,1010.01
2018-06-07T05:23:20.373Z,1010.03
2018-06-07T05:25:17.815Z,1010.03
2018-06-07T05:26:17.786Z,1010.03
2018-06-07T05:28:19.244Z,1010.06
2018-06-07T05:29:18.303Z,1010.11
2018-06-07T05:31:19.740Z,1010.13
2018-06-07T05:32:19.738Z,1010.08
2018-06-07T05:34:20.738Z,1010.07
2018-06-07T05:35:21.209Z,1010.08
2018-06-07T05:37:20.161Z,1010.06
2018-06-07T05:38:20.177Z,1010.05
2018-06-07T05:40:17.852Z,1010.12
2018-06-07T05:41:16.367Z,1010.15
2018-06-07T05:43:14.838Z,1010.17
2018-06-07T05:44:14.329Z,1010.23
2018-06-07T05:46:16.242Z,1010.23
2018-06-07T05:47:14.749Z,1010.24
2018-06-07T05:49:13.696Z,1010.28
2018-06-07T05:50:13.701Z,1010.26
2018-06-07T05:52:10.652Z,1010.28
2018-06-07T05:53:15.185Z,1010.28
2018-06-07T05:55:06.640Z,1010.22
2018-06-07T05:56:07.127Z,1010.25
2018-06-07T05:58:04.642Z,1010.23
2018-06-07T05:59:05.150Z,1010.24
2018-06-07T06:01:05.046Z,1010.26
2018-06-07T06:02:06.035Z,1010.25
2018-06-07T06:04:04.518Z,1010.26
2018-06-07T06:05:03.205Z,1010.26
2018-06-07T06:07:03.708Z,1010.28
2018-06-07T06:08:04.161Z,1010.27
2018-06-07T06:10:02.153Z,1010.30
2018-06-07T06:11:02.157Z,1010.32
2018-06-07T06:13:02.126Z,1010.35
2018-06-07T06:14:02.118Z,1010.33
2018-06-07T06:16:03.122Z,1010.33
2018-06-07T06:17:02.605Z,1010.33
2018-06-07T06:19:03.066Z,1010.32
2018-06-07T06:20:03.562Z,1010.35
2018-06-07T06:22:03.997Z,1010.30
2018-06-07T06:23:03.472Z,1010.31
2018-06-07T06:25:01.556Z,1010.28
2018-06-07T06:26:01.456Z,1010.32
2018-06-07T06:28:02.935Z,1010.37
2018-06-07T06:29:01.945Z,1010.34
2018-06-07T06:31:00.896Z,1010.35
2018-06-07T06:32:02.941Z,1010.33
2018-06-07T06:33:59.566Z,1010.32
2018-06-07T06:34:58.064Z,1010.34
2018-06-07T06:36:58.530Z,1010.31
2018-06-07T06:37:58.581Z,1010.36
2018-06-07T06:39:56.576Z,1010.35
2018-06-07T06:40:56.536Z,1010.36
2018-06-07T06:42:55.919Z,1010.36
2018-06-07T06:43:54.683Z,1010.37
2018-06-07T06:45:56.241Z,1010.40
2018-06-07T06:46:55.148Z,1010.38
2018-06-07T06:48:55.747Z,1010.37
2018-06-07T06:49:56.621Z,1010.38
2018-06-07T06:51:56.084Z,1010.40
2018-06-07T06:52:56.589Z,1010.38
2018-06-07T06:54:54.555Z,1010.32
2018-06-07T06:55:55.516Z,1010.33
2018-06-07T06:57:54.479Z,1010.31
2018-06-07T06:58:54.512Z,1010.34
2018-06-07T07:00:53.006Z,1010.31
2018-06-07T07:01:52.491Z,1010.33
2018-06-07T07:03:48.433Z,1010.31
2018-06-07T07:04:49.058Z,1010.31
2018-06-07T07:06:48.904Z,1010.34
2018-06-07T07:07:49.095Z,1010.32
2018-06-07T07:09:48.801Z,1010.34
2018-06-07T07:10:47.895Z,1010.30
2018-06-07T07:12:45.219Z,1010.34
2018-06-07T07:13:45.403Z,1010.35
2018-06-07T07:16:00.332Z,1010.41
2018-06-07T07:17:00.328Z,1010.45
2018-06-07T07:18:56.081Z,1010.44
2018-06-07T07:19:55.479Z,1010.43
2018-06-07T07:21:55.950Z,1010.44
2018-06-07T07:22:55.926Z,1010.44
2018-06-07T07:24:58.424Z,1010.39
2018-06-07T07:25:58.075Z,1010.43
2018-06-07T07:28:00.229Z,1010.42
2018-06-07T07:28:59.234Z,1010.41
2018-06-07T07:30:59.243Z,1010.41
2018-06-07T07:31:56.546Z,1010.42
2018-06-07T07:33:54.851Z,1010.37
2018-06-07T07:34:54.665Z,1010.41
2018-06-07T07:36:54.659Z,1010.38
2018-06-07T07:37:53.637Z,1010.39
2018-06-07T07:39:51.145Z,1010.39
2018-06-07T07:40:50.587Z,1010.34
2018-06-07T07:42:52.059Z,1010.35
2018-06-07T07:43:51.577Z,1010.37
2018-06-07T07:45:52.087Z,1010.37
2018-06-07T07:46:52.549Z,1010.33
2018-06-07T07:48:47.496Z,1010.36
2018-06-07T07:49:48.039Z,1010.35
2018-06-07T07:51:45.593Z,1010.36
2018-06-07T07:52:45.626Z,1010.35
2018-06-07T07:54:42.594Z,1010.34
2018-06-07T07:55:42.615Z,1010.32
2018-06-07T07:57:38.557Z,1010.31
2018-06-07T07:58:38.573Z,1010.32
2018-06-07T08:00:33.588Z,1010.31
2018-06-07T08:01:33.549Z,1010.32
2018-06-07T08:03:32.502Z,1010.34
2018-06-07T08:04:33.555Z,1010.36
2018-06-07T08:06:29.092Z,1010.40
2018-06-07T08:08:43.466Z,1010.44
2018-06-07T08:09:43.495Z,1010.44
2018-06-07T08:11:41.577Z,1010.42
2018-06-07T08:12:41.486Z,1010.39
2018-06-07T08:15:09.905Z,1010.43
2018-06-07T08:16:08.410Z,1010.45
2018-06-07T08:18:14.987Z,1010.45
2018-06-07T08:19:13.206Z,1010.42
2018-06-07T08:21:14.603Z,1010.42
2018-06-07T08:22:13.667Z,1010.42
2018-06-07T08:24:15.093Z,1010.45
2018-06-07T08:25:14.111Z,1010.42
2018-06-07T08:27:12.247Z,1010.41
2018-06-07T08:28:12.261Z,1010.41
2018-06-07T08:30:12.733Z,1010.40
2018-06-07T08:31:12.742Z,1010.40
2018-06-07T08:33:10.699Z,1010.40
2018-06-07T08:34:11.735Z,1010.47
2018-06-07T08:36:06.684Z,1010.50
2018-06-07T08:37:06.726Z,1010.49
2018-06-07T08:39:04.839Z,1010.48
2018-06-07T08:40:04.903Z,1010.46
2018-06-07T08:42:03.336Z,1010.40
2018-06-07T08:43:03.361Z,1010.42
2018-06-07T08:45:03.940Z,1010.39
2018-06-07T08:46:04.654Z,1010.42
2018-06-07T08:47:59.352Z,1010.50
2018-06-07T08:50:21.609Z,1010.44
2018-06-07T08:51:20.097Z,1010.44
2018-06-07T08:53:20.461Z,1010.40
2018-06-07T08:54:20.371Z,1010.38
2018-06-07T08:56:21.960Z,1010.39
2018-06-07T08:57:20.856Z,1010.43
2018-06-07T08:59:18.824Z,1010.46
2018-06-07T09:01:47.469Z,1010.48
2018-06-07T09:02:44.841Z,1010.44
2018-06-07T09:04:42.306Z,1010.43
2018-06-07T09:05:38.790Z,1010.45
2018-06-07T09:07:39.295Z,1010.45
2018-06-07T09:08:39.283Z,1010.47
2018-06-07T09:10:35.364Z,1010.47
2018-06-07T09:11:35.328Z,1010.48
2018-06-07T09:13:36.633Z,1010.44
2018-06-07T09:14:35.741Z,1010.47
2018-06-07T09:16:32.734Z,1010.41
2018-06-07T09:17:32.700Z,1010.44
2018-06-07T09:19:33.203Z,1010.41
2018-06-07T09:20:33.215Z,1010.43
2018-06-07T09:22:31.157Z,1010.38
2018-06-07T09:23:31.681Z,1010.42
2018-06-07T09:25:30.112Z,1010.39
2018-06-07T09:26:29.200Z,1010.37
2018-06-07T09:28:29.748Z,1010.39
2018-06-07T09:29:29.614Z,1010.39
2018-06-07T09:31:28.628Z,1010.43
2018-06-07T09:32:27.613Z,1010.35
2018-06-07T09:34:25.602Z,1010.36
2018-06-07T09:35:26.590Z,1010.37
2018-06-07T09:37:24.061Z,1010.37
2018-06-07T09:38:24.567Z,1010.34
2018-06-07T09:40:20.730Z,1010.40
2018-06-07T09:41:19.846Z,1010.39
2018-06-07T09:43:20.368Z,1010.37
2018-06-07T09:44:23.422Z,1010.37
2018-06-07T09:46:23.321Z,1010.41
2018-06-07T09:47:22.820Z,1010.41
2018-06-07T09:49:23.291Z,1010.40
2018-06-07T09:50:21.314Z,1010.43
2018-06-07T09:52:19.920Z,1010.39
2018-06-07T09:53:19.816Z,1010.39
2018-06-07T09:55:16.612Z,1010.36
2018-06-07T09:56:18.035Z,1010.39
2018-06-07T09:58:14.860Z,1010.42
2018-06-07T09:59:14.431Z,1010.43
2018-06-07T10:01:15.329Z,1010.39
2018-06-07T10:02:14.850Z,1010.32
2018-06-07T10:04:18.481Z,1010.40
2018-06-07T10:05:13.897Z,1010.41
2018-06-07T10:07:14.020Z,1010.42
2018-06-07T10:08:15.004Z,1010.41
2018-06-07T10:10:10.436Z,1010.37
2018-06-07T10:11:10.479Z,1010.37
2018-06-07T10:13:05.985Z,1010.41
2018-06-07T10:14:06.411Z,1010.44
2018-06-07T10:16:06.402Z,1010.43
2018-06-07T10:17:07.423Z,1010.42
2018-06-07T10:19:08.982Z,1010.45
2018-06-07T10:20:07.382Z,1010.45
2018-06-07T10:22:03.364Z,1010.43
2018-06-07T10:23:03.327Z,1010.42
2018-06-07T10:25:01.360Z,1010.43
2018-06-07T10:26:02.306Z,1010.43
2018-06-07T10:28:03.412Z,1010.43
2018-06-07T10:29:01.926Z,1010.46
2018-06-07T10:31:02.273Z,1010.44
2018-06-07T10:32:03.252Z,1010.44
2018-06-07T10:34:01.735Z,1010.42
2018-06-07T10:35:00.264Z,1010.47
2018-06-07T10:36:56.202Z,1010.43
2018-06-07T10:39:14.696Z,1010.45
2018-06-07T10:40:14.190Z,1010.43
2018-06-07T10:42:20.501Z,1010.44
2018-06-07T10:43:15.618Z,1010.42
2018-06-07T10:45:13.587Z,1010.37
2018-06-07T10:46:15.559Z,1010.36
2018-06-07T10:48:16.625Z,1010.35
2018-06-07T10:49:14.065Z,1010.36
2018-06-07T10:51:19.764Z,1010.37
2018-06-07T10:52:20.533Z,1010.38
2018-06-07T10:54:17.556Z,1010.32
2018-06-07T10:55:17.520Z,1010.34
2018-06-07T10:57:20.531Z,1010.38
2018-06-07T10:58:19.491Z,1010.37
2018-06-07T11:00:18.955Z,1010.38
2018-06-07T11:01:19.019Z,1010.39
2018-06-07T11:03:19.964Z,1010.32
2018-06-07T11:04:21.916Z,1010.37
2018-06-07T11:06:21.941Z,1010.37
2018-06-07T11:07:20.476Z,1010.37
2018-06-07T11:09:23.964Z,1010.38
2018-06-07T11:10:20.891Z,1010.36
2018-06-07T11:12:22.389Z,1010.40
2018-06-07T11:13:22.341Z,1010.32
2018-06-07T11:15:21.215Z,1010.32
2018-06-07T11:16:20.267Z,1010.32
2018-06-07T11:18:21.172Z,1010.33
2018-06-07T11:19:20.247Z,1010.32
2018-06-07T11:21:21.586Z,1010.30
2018-06-07T11:22:21.708Z,1010.30
2018-06-07T11:24:26.146Z,1010.26
2018-06-07T11:25:25.638Z,1010.36
2018-06-07T11:27:22.197Z,1010.29
2018-06-07T11:28:21.671Z,1010.31
2018-06-07T11:30:23.150Z,1010.24
2018-06-07T11:31:24.606Z,1010.25
2018-06-07T11:33:27.928Z,1010.21
2018-06-07T11:34:26.336Z,1010.22
2018-06-07T11:36:22.326Z,1010.23
2018-06-07T11:37:23.874Z,1010.22
2018-06-07T11:39:20.925Z,1010.21
2018-06-07T11:40:20.465Z,1010.21
2018-06-07T11:42:21.237Z,1010.20
2018-06-07T11:43:20.881Z,1010.19
2018-06-07T11:45:22.870Z,1010.23
2018-06-07T11:46:22.401Z,1010.19
2018-06-07T11:48:19.365Z,1010.25
2018-06-07T11:49:19.445Z,1010.20
2018-06-07T11:51:24.893Z,1010.17
2018-06-07T11:52:22.526Z,1010.14
2018-06-07T11:54:22.245Z,1010.07
2018-06-07T11:55:22.232Z,1010.13
2018-06-07T11:57:23.553Z,1010.05
2018-06-07T11:58:22.681Z,1010.07
2018-06-07T12:00:26.722Z,1010.02
2018-06-07T12:01:24.912Z,1010.04
2018-06-07T12:03:25.367Z,1010.07
2018-06-07T12:04:25.334Z,1010.12
2018-06-07T12:06:25.884Z,1010.08
2018-06-07T12:07:25.800Z,1010.01
2018-06-07T12:09:26.445Z,1009.90
2018-06-07T12:10:26.375Z,1009.96
2018-06-07T12:12:22.191Z,1009.95
2018-06-07T12:15:23.996Z,1009.91
2018-06-07T12:16:20.441Z,1009.96
2018-06-07T12:18:20.356Z,1009.94
2018-06-07T12:19:18.472Z,1009.94
2018-06-07T12:21:24.883Z,1009.93
2018-06-07T12:22:24.362Z,1009.87
2018-06-07T12:24:25.641Z,1009.90
2018-06-07T12:25:24.660Z,1009.88
2018-06-07T12:27:25.616Z,1009.90
2018-06-07T12:28:25.121Z,1009.85
2018-06-07T12:30:27.116Z,1009.83
2018-06-07T12:31:28.822Z,1009.84
2018-06-07T12:33:27.297Z,1009.77
2018-06-07T12:34:26.630Z,1009.76
2018-06-07T12:36:32.493Z,1009.78
2018-06-07T12:37:33.893Z,1009.76
2018-06-07T12:39:32.524Z,1009.79
2018-06-07T12:40:32.599Z,1009.80
2018-06-07T12:42:28.455Z,1009.81
2018-06-07T12:43:29.263Z,1009.76
2018-06-07T12:45:30.864Z,1009.78
2018-06-07T12:46:30.851Z,1009.80
2018-06-07T12:48:27.820Z,1009.85
2018-06-07T12:49:34.406Z,1009.82
2018-06-07T12:51:28.800Z,1009.83
2018-06-07T12:52:29.383Z,1009.84
2018-06-07T12:54:27.524Z,1009.81
2018-06-07T12:55:27.522Z,1009.80
2018-06-07T12:57:27.557Z,1009.76
2018-06-07T12:58:24.946Z,1009.79
2018-06-07T13:00:26.967Z,1009.78
2018-06-07T13:01:25.030Z,1009.79
2018-06-07T13:03:27.403Z,1009.74
2018-06-07T13:04:27.454Z,1009.67
2018-06-07T13:06:27.784Z,1009.70
2018-06-07T13:07:28.136Z,1009.67
2018-06-07T13:09:30.807Z,1009.59
2018-06-07T13:10:28.285Z,1009.50
2018-06-07T13:12:32.594Z,1009.48
2018-06-07T13:13:47.027Z,1009.45
2018-06-07T13:15:34.763Z,1009.46
2018-06-07T13:16:34.054Z,1009.48
2018-06-07T13:18:33.873Z,1009.42
2018-06-07T13:19:35.384Z,1009.46
2018-06-07T13:21:35.397Z,1009.43
2018-06-07T13:22:34.066Z,1009.40
2018-06-07T13:24:35.613Z,1009.44
2018-06-07T13:25:35.553Z,1009.46
2018-06-07T13:27:29.902Z,1009.41
2018-06-07T13:28:30.501Z,1009.44
2018-06-07T13:30:38.313Z,1009.41
2018-06-07T13:31:31.369Z,1009.42
2018-06-07T13:33:28.984Z,1009.38
2018-06-07T13:34:31.559Z,1009.39
2018-06-07T13:36:30.464Z,1009.36
2018-06-07T13:37:30.447Z,1009.35
2018-06-07T13:39:29.419Z,1009.33
2018-06-07T13:40:28.917Z,1009.36
2018-06-07T13:42:28.581Z,1009.33
2018-06-07T13:43:28.259Z,1009.35
2018-06-07T13:45:29.707Z,1009.32
2018-06-07T13:46:28.750Z,1009.26
2018-06-07T13:48:26.920Z,1009.28
2018-06-07T13:49:26.922Z,1009.28
2018-06-07T13:51:29.423Z,1009.28
2018-06-07T13:52:28.373Z,1009.27
2018-06-07T13:54:30.395Z,1009.20
2018-06-07T13:55:29.867Z,1009.26
2018-06-07T13:57:34.952Z,1009.31
2018-06-07T13:58:34.395Z,1009.25
2018-06-07T14:00:31.820Z,1009.18
2018-06-07T14:01:31.311Z,1009.24
2018-06-07T14:03:28.794Z,1009.26
2018-06-07T14:04:28.485Z,1009.21
2018-06-07T14:06:29.001Z,1009.22
2018-06-07T14:07:29.953Z,1009.16
2018-06-07T14:09:27.602Z,1009.10
2018-06-07T14:10:29.036Z,1009.04
2018-06-07T14:12:34.859Z,1009.05
2018-06-07T14:15:20.446Z,1009.04
2018-06-07T14:16:18.656Z,1009.07
2018-06-07T14:18:16.621Z,1009.08
2018-06-07T14:19:14.680Z,1009.04
2018-06-07T14:21:13.212Z,1009.01
2018-06-07T14:22:12.634Z,1009.08
2018-06-07T14:24:13.667Z,1009.07
2018-06-07T14:25:16.192Z,1009.03
2018-06-07T14:27:33.143Z,1009.04
2018-06-07T14:29:10.172Z,1009.05
2018-06-07T14:30:12.136Z,1009.08
2018-06-07T14:32:07.811Z,1009.13
2018-06-07T14:33:11.792Z,1009.12
2018-06-07T14:35:10.244Z,1009.18
2018-06-07T14:36:09.875Z,1009.23
2018-06-07T14:38:16.381Z,1009.19
2018-06-07T14:40:33.283Z,1009.22
2018-06-07T14:41:35.708Z,1009.16
2018-06-07T14:43:31.679Z,1009.23
2018-06-07T14:44:35.686Z,1009.16
2018-06-07T14:46:31.776Z,1009.12
2018-06-07T14:47:31.702Z,1009.10
2018-06-07T14:49:34.073Z,1009.16
2018-06-07T14:50:32.232Z,1009.07
2018-06-07T14:52:31.620Z,1009.12
2018-06-07T14:53:30.165Z,1009.13
2018-06-07T14:55:29.062Z,1009.09
2018-06-07T14:57:47.988Z,1009.02
2018-06-07T14:58:46.939Z,1009.04
2018-06-07T15:00:46.642Z,1009.10
2018-06-07T15:01:46.628Z,1009.06
2018-06-07T15:03:49.157Z,1009.05
2018-06-07T15:04:50.734Z,1009.04
2018-06-07T15:07:13.117Z,1009.10
2018-06-07T15:08:14.637Z,1009.10
2018-06-07T15:10:20.830Z,1009.08
2018-06-07T15:11:21.903Z,1009.09
2018-06-07T15:13:24.392Z,1009.12
2018-06-07T15:14:21.470Z,1009.14
2018-06-07T15:16:20.828Z,1009.11
2018-06-07T15:17:19.322Z,1009.12
2018-06-07T15:19:19.800Z,1009.09
2018-06-07T15:20:19.770Z,1009.09
2018-06-07T15:22:20.210Z,1009.16
2018-06-07T15:23:20.213Z,1009.21
2018-06-07T15:25:23.566Z,1009.15
2018-06-07T15:26:22.804Z,1009.14
2018-06-07T15:28:17.638Z,1009.11
2018-06-07T15:29:16.658Z,1009.09
2018-06-07T15:31:15.291Z,1009.11
2018-06-07T15:32:15.637Z,1009.06
2018-06-07T15:34:14.262Z,1009.09
2018-06-07T15:35:12.903Z,1009.08
2018-06-07T15:37:14.256Z,1009.06
2018-06-07T15:38:14.457Z,1009.03
2018-06-07T15:40:14.766Z,1009.08
2018-06-07T15:41:14.790Z,1009.10
2018-06-07T15:43:16.232Z,1009.12
2018-06-07T15:44:17.274Z,1009.09
2018-06-07T15:48:51.656Z,1009.01
2018-06-07T15:49:51.580Z,1008.99
2018-06-07T15:51:53.581Z,1009.04
2018-06-07T15:52:52.213Z,1009.08
2018-06-07T15:54:52.564Z,1009.09
2018-06-07T15:58:13.554Z,1009.34
